Aurora, Colorado
Current Conditions -  °F | °C
As of 12:58 AM on Wednesday 26 Nov 2014 (Local Time) from KBKF Reporting Station
Light Snow Light Snow  
Wind Chill: 29°   Ceiling: 1100
Heat Index: 29°   Visibility: 10mi
Dew Point: 27°   Wind: 3mph
Humidity: 92%   Direction: 110°ESE
Pressure: 30.14"   Gusts: NA
Location:  39.69°N, 104.86°W
Report Text: KBKF 260758Z 11003KT 10SM -SN BKN011 OVC019 M02/M03 A3014 RMK AO2A SNB0701 SLP204 P0000 T10181029
Loading
Personal Weather Stations






























Interactive Weather Map New forecast layout! Learn more

10-Day Weather Forecast

Advertisements
Track Severe Weather on mobile